sensor_id;sensor_type;location;lat;lon;timestamp;temperature;humidity
16532;DHT22;66872;63.142;14.482;2024-01-15T00:01:49;14.60;25.90
16532;DHT22;66872;63.142;14.482;2024-01-15T00:04:15;14.60;25.90
16532;DHT22;66872;63.142;14.482;2024-01-15T00:06:40;14.60;25.90
16532;DHT22;66872;63.142;14.482;2024-01-15T00:09:06;14.60;25.90
16532;DHT22;66872;63.142;14.482;2024-01-15T00:11:32;14.60;25.90
16532;DHT22;66872;63.142;14.482;2024-01-15T00:13:58;14.60;25.90
16532;DHT22;66872;63.142;14.482;2024-01-15T00:16:24;14.60;25.90
16532;DHT22;66872;63.142;14.482;2024-01-15T00:18:49;14.60;26.00
16532;DHT22;66872;63.142;14.482;2024-01-15T00:21:15;14.60;26.00
16532;DHT22;66872;63.142;14.482;2024-01-15T00:23:44;14.60;26.00
16532;DHT22;66872;63.142;14.482;2024-01-15T00:26:10;14.60;26.00
16532;DHT22;66872;63.142;14.482;2024-01-15T00:28:36;14.60;26.00
16532;DHT22;66872;63.142;14.482;2024-01-15T00:31:03;14.60;26.00
16532;DHT22;66872;63.142;14.482;2024-01-15T00:33:29;14.60;26.00
16532;DHT22;66872;63.142;14.482;2024-01-15T00:35:55;14.60;26.00
16532;DHT22;66872;63.142;14.482;2024-01-15T00:38:20;14.60;26.00
16532;DHT22;66872;63.142;14.482;2024-01-15T00:40:46;14.60;26.10
16532;DHT22;66872;63.142;14.482;2024-01-15T00:43:12;14.50;26.00
16532;DHT22;66872;63.142;14.482;2024-01-15T00:45:37;14.50;26.00
16532;DHT22;66872;63.142;14.482;2024-01-15T00:48:04;14.50;26.00
16532;DHT22;66872;63.142;14.482;2024-01-15T00:50:30;14.50;26.00
16532;DHT22;66872;63.142;14.482;2024-01-15T00:52:55;14.50;26.00
16532;DHT22;66872;63.142;14.482;2024-01-15T00:55:21;14.50;26.00
16532;DHT22;66872;63.142;14.482;2024-01-15T00:57:47;14.50;26.00
16532;DHT22;66872;63.142;14.482;2024-01-15T01:00:13;14.60;26.10
16532;DHT22;66872;63.142;14.482;2024-01-15T01:02:38;14.50;26.00
16532;DHT22;66872;63.142;14.482;2024-01-15T01:05:04;14.50;26.00
16532;DHT22;66872;63.142;14.482;2024-01-15T01:07:30;14.50;26.00
16532;DHT22;66872;63.142;14.482;2024-01-15T01:09:55;14.50;26.00
16532;DHT22;66872;63.142;14.482;2024-01-15T01:12:21;14.50;26.00
16532;DHT22;66872;63.142;14.482;2024-01-15T01:14:47;14.50;26.00
16532;DHT22;66872;63.142;14.482;2024-01-15T01:17:12;14.50;26.00
16532;DHT22;66872;63.142;14.482;2024-01-15T01:19:38;14.50;26.00
16532;DHT22;66872;63.142;14.482;2024-01-15T01:22:04;14.50;26.00
16532;DHT22;66872;63.142;14.482;2024-01-15T01:24:30;14.50;26.00
16532;DHT22;66872;63.142;14.482;2024-01-15T01:26:56;14.50;26.00
16532;DHT22;66872;63.142;14.482;2024-01-15T01:29:21;14.50;26.00
16532;DHT22;66872;63.142;14.482;2024-01-15T01:31:48;14.50;26.00
16532;DHT22;66872;63.142;14.482;2024-01-15T01:34:15;14.50;26.00
16532;DHT22;66872;63.142;14.482;2024-01-15T01:36:41;14.50;26.00
16532;DHT22;66872;63.142;14.482;2024-01-15T01:39:07;14.60;26.10
16532;DHT22;66872;63.142;14.482;2024-01-15T01:41:32;14.50;26.00
16532;DHT22;66872;63.142;14.482;2024-01-15T01:43:58;14.50;26.00
16532;DHT22;66872;63.142;14.482;2024-01-15T01:46:24;14.50;26.00
16532;DHT22;66872;63.142;14.482;2024-01-15T01:48:52;14.50;26.00
16532;DHT22;66872;63.142;14.482;2024-01-15T01:51:18;14.50;26.00
16532;DHT22;66872;63.142;14.482;2024-01-15T01:53:45;14.50;26.00
16532;DHT22;66872;63.142;14.482;2024-01-15T01:56:11;14.50;26.00
16532;DHT22;66872;63.142;14.482;2024-01-15T01:58:37;14.50;26.00
16532;DHT22;66872;63.142;14.482;2024-01-15T02:01:03;14.50;26.00
16532;DHT22;66872;63.142;14.482;2024-01-15T02:03:30;14.50;25.90
16532;DHT22;66872;63.142;14.482;2024-01-15T02:05:56;14.50;25.90
16532;DHT22;66872;63.142;14.482;2024-01-15T02:08:22;14.50;25.90
16532;DHT22;66872;63.142;14.482;2024-01-15T02:10:48;14.60;25.90
16532;DHT22;66872;63.142;14.482;2024-01-15T02:13:13;14.60;25.90
16532;DHT22;66872;63.142;14.482;2024-01-15T02:15:40;14.60;25.90
16532;DHT22;66872;63.142;14.482;2024-01-15T02:18:06;14.50;25.80
16532;DHT22;66872;63.142;14.482;2024-01-15T02:20:33;14.60;25.90
16532;DHT22;66872;63.142;14.482;2024-01-15T02:23:12;14.50;25.80
16532;DHT22;66872;63.142;14.482;2024-01-15T02:25:45;14.50;25.80
16532;DHT22;66872;63.142;14.482;2024-01-15T02:28:13;14.50;25.80
16532;DHT22;66872;63.142;14.482;2024-01-15T02:30:40;14.60;25.80
16532;DHT22;66872;63.142;14.482;2024-01-15T02:33:10;14.60;25.70
16532;DHT22;66872;63.142;14.482;2024-01-15T02:35:36;14.50;25.60
16532;DHT22;66872;63.142;14.482;2024-01-15T02:38:03;14.60;25.70
16532;DHT22;66872;63.142;14.482;2024-01-15T02:40:29;14.60;25.60
16532;DHT22;66872;63.142;14.482;2024-01-15T02:42:54;14.60;25.60
16532;DHT22;66872;63.142;14.482;2024-01-15T02:45:23;14.60;26.10
16532;DHT22;66872;63.142;14.482;2024-01-15T02:47:49;14.60;25.60
16532;DHT22;66872;63.142;14.482;2024-01-15T02:50:14;14.60;25.60
16532;DHT22;66872;63.142;14.482;2024-01-15T02:52:41;14.60;25.60
16532;DHT22;66872;63.142;14.482;2024-01-15T02:55:07;14.50;25.60
16532;DHT22;66872;63.142;14.482;2024-01-15T02:57:33;14.50;25.60
16532;DHT22;66872;63.142;14.482;2024-01-15T02:59:58;14.50;25.60
16532;DHT22;66872;63.142;14.482;2024-01-15T03:02:24;14.50;25.60
16532;DHT22;66872;63.142;14.482;2024-01-15T03:04:50;14.50;25.60
16532;DHT22;66872;63.142;14.482;2024-01-15T03:07:16;14.60;25.60
16532;DHT22;66872;63.142;14.482;2024-01-15T03:09:41;14.50;25.50
16532;DHT22;66872;63.142;14.482;2024-01-15T03:12:07;14.50;25.60
16532;DHT22;66872;63.142;14.482;2024-01-15T03:14:33;14.50;25.60
16532;DHT22;66872;63.142;14.482;2024-01-15T03:16:59;14.50;25.60
16532;DHT22;66872;63.142;14.482;2024-01-15T03:19:26;14.50;25.60
16532;DHT22;66872;63.142;14.482;2024-01-15T03:21:51;14.50;25.70
16532;DHT22;66872;63.142;14.482;2024-01-15T03:24:17;14.50;25.70
16532;DHT22;66872;63.142;14.482;2024-01-15T03:26:43;14.50;25.70
16532;DHT22;66872;63.142;14.482;2024-01-15T03:29:08;14.50;25.70
16532;DHT22;66872;63.142;14.482;2024-01-15T03:31:34;14.50;25.60
16532;DHT22;66872;63.142;14.482;2024-01-15T03:34:00;14.50;25.60
16532;DHT22;66872;63.142;14.482;2024-01-15T03:36:25;14.50;25.70
16532;DHT22;66872;63.142;14.482;2024-01-15T03:38:51;14.50;25.70
16532;DHT22;66872;63.142;14.482;2024-01-15T03:41:17;14.50;25.70
16532;DHT22;66872;63.142;14.482;2024-01-15T03:43:42;14.50;25.70
16532;DHT22;66872;63.142;14.482;2024-01-15T03:46:08;14.50;25.60
16532;DHT22;66872;63.142;14.482;2024-01-15T03:48:34;14.50;25.60
16532;DHT22;66872;63.142;14.482;2024-01-15T03:50:59;14.50;25.60
16532;DHT22;66872;63.142;14.482;2024-01-15T03:53:25;14.50;25.60
16532;DHT22;66872;63.142;14.482;2024-01-15T03:55:50;14.50;25.60
16532;DHT22;66872;63.142;14.482;2024-01-15T03:58:16;14.50;25.60
16532;DHT22;66872;63.142;14.482;2024-01-15T04:00:42;14.50;25.60
16532;DHT22;66872;63.142;14.482;2024-01-15T04:03:08;14.50;25.60
16532;DHT22;66872;63.142;14.482;2024-01-15T04:05:34;14.50;25.60
16532;DHT22;66872;63.142;14.482;2024-01-15T04:08:00;14.50;25.60
16532;DHT22;66872;63.142;14.482;2024-01-15T04:10:26;14.50;25.60
16532;DHT22;66872;63.142;14.482;2024-01-15T04:12:51;14.50;25.70
16532;DHT22;66872;63.142;14.482;2024-01-15T04:15:17;14.50;25.70
16532;DHT22;66872;63.142;14.482;2024-01-15T04:17:43;14.50;25.70
16532;DHT22;66872;63.142;14.482;2024-01-15T04:20:09;14.50;25.70
16532;DHT22;66872;63.142;14.482;2024-01-15T04:22:35;14.50;25.70
16532;DHT22;66872;63.142;14.482;2024-01-15T04:25:01;14.50;25.70
16532;DHT22;66872;63.142;14.482;2024-01-15T04:27:27;14.50;25.70
16532;DHT22;66872;63.142;14.482;2024-01-15T04:29:53;14.50;25.70
16532;DHT22;66872;63.142;14.482;2024-01-15T04:32:19;14.50;25.70
16532;DHT22;66872;63.142;14.482;2024-01-15T04:34:45;14.50;25.70
16532;DHT22;66872;63.142;14.482;2024-01-15T04:37:10;14.50;25.70
16532;DHT22;66872;63.142;14.482;2024-01-15T04:39:36;14.50;25.70
16532;DHT22;66872;63.142;14.482;2024-01-15T04:42:02;14.50;25.60
16532;DHT22;66872;63.142;14.482;2024-01-15T04:44:28;14.50;25.60
16532;DHT22;66872;63.142;14.482;2024-01-15T04:46:54;14.50;25.60
16532;DHT22;66872;63.142;14.482;2024-01-15T04:49:20;14.50;25.60
16532;DHT22;66872;63.142;14.482;2024-01-15T04:51:45;14.50;25.60
16532;DHT22;66872;63.142;14.482;2024-01-15T04:54:11;14.50;25.60
16532;DHT22;66872;63.142;14.482;2024-01-15T04:56:37;14.50;25.60
16532;DHT22;66872;63.142;14.482;2024-01-15T04:59:02;14.50;25.60
16532;DHT22;66872;63.142;14.482;2024-01-15T05:01:32;14.50;25.50
16532;DHT22;66872;63.142;14.482;2024-01-15T05:03:58;14.50;25.50
16532;DHT22;66872;63.142;14.482;2024-01-15T05:06:23;14.50;25.50
16532;DHT22;66872;63.142;14.482;2024-01-15T05:08:49;14.50;25.50
16532;DHT22;66872;63.142;14.482;2024-01-15T05:11:15;14.50;25.50
16532;DHT22;66872;63.142;14.482;2024-01-15T05:13:40;14.50;25.50
16532;DHT22;66872;63.142;14.482;2024-01-15T05:16:06;14.50;25.50
16532;DHT22;66872;63.142;14.482;2024-01-15T05:18:32;14.50;25.50
16532;DHT22;66872;63.142;14.482;2024-01-15T05:20:57;14.50;25.50
16532;DHT22;66872;63.142;14.482;2024-01-15T05:23:23;14.50;25.40
16532;DHT22;66872;63.142;14.482;2024-01-15T05:25:48;14.50;25.50
16532;DHT22;66872;63.142;14.482;2024-01-15T05:28:14;14.40;25.40
16532;DHT22;66872;63.142;14.482;2024-01-15T05:30:40;14.50;25.40
16532;DHT22;66872;63.142;14.482;2024-01-15T05:33:06;14.50;25.50
16532;DHT22;66872;63.142;14.482;2024-01-15T05:35:33;14.40;25.90
16532;DHT22;66872;63.142;14.482;2024-01-15T05:37:58;14.50;25.50
16532;DHT22;66872;63.142;14.482;2024-01-15T05:40:24;14.40;25.40
16532;DHT22;66872;63.142;14.482;2024-01-15T05:42:50;14.50;25.90
16532;DHT22;66872;63.142;14.482;2024-01-15T05:45:15;14.40;25.40
16532;DHT22;66872;63.142;14.482;2024-01-15T05:47:41;14.50;25.40
16532;DHT22;66872;63.142;14.482;2024-01-15T05:50:08;14.50;25.40
16532;DHT22;66872;63.142;14.482;2024-01-15T05:52:33;14.50;25.40
16532;DHT22;66872;63.142;14.482;2024-01-15T05:54:59;14.50;25.40
16532;DHT22;66872;63.142;14.482;2024-01-15T05:57:25;14.50;25.40
16532;DHT22;66872;63.142;14.482;2024-01-15T05:59:50;14.50;25.40
16532;DHT22;66872;63.142;14.482;2024-01-15T06:02:16;14.50;25.40
16532;DHT22;66872;63.142;14.482;2024-01-15T06:04:42;14.50;25.40
16532;DHT22;66872;63.142;14.482;2024-01-15T06:07:07;14.40;25.30
16532;DHT22;66872;63.142;14.482;2024-01-15T06:09:33;14.40;25.30
16532;DHT22;66872;63.142;14.482;2024-01-15T06:11:59;14.50;25.40
16532;DHT22;66872;63.142;14.482;2024-01-15T06:14:24;14.50;25.40
16532;DHT22;66872;63.142;14.482;2024-01-15T06:16:52;14.50;25.40
16532;DHT22;66872;63.142;14.482;2024-01-15T06:19:17;14.50;25.40
16532;DHT22;66872;63.142;14.482;2024-01-15T06:21:43;14.50;25.40
16532;DHT22;66872;63.142;14.482;2024-01-15T06:24:09;14.50;25.30
16532;DHT22;66872;63.142;14.482;2024-01-15T06:26:35;14.50;25.30
16532;DHT22;66872;63.142;14.482;2024-01-15T06:29:01;14.40;25.20
16532;DHT22;66872;63.142;14.482;2024-01-15T06:31:28;14.50;25.30
16532;DHT22;66872;63.142;14.482;2024-01-15T06:33:55;14.50;25.30
16532;DHT22;66872;63.142;14.482;2024-01-15T06:36:21;14.50;25.20
16532;DHT22;66872;63.142;14.482;2024-01-15T06:38:47;14.50;25.30
16532;DHT22;66872;63.142;14.482;2024-01-15T06:41:12;14.40;25.20
16532;DHT22;66872;63.142;14.482;2024-01-15T06:43:38;14.40;25.20
16532;DHT22;66872;63.142;14.482;2024-01-15T06:46:04;14.40;25.20
16532;DHT22;66872;63.142;14.482;2024-01-15T06:48:29;14.40;25.20
16532;DHT22;66872;63.142;14.482;2024-01-15T06:50:55;14.40;25.20
16532;DHT22;66872;63.142;14.482;2024-01-15T06:53:20;14.50;25.30
16532;DHT22;66872;63.142;14.482;2024-01-15T06:55:46;14.50;25.20
16532;DHT22;66872;63.142;14.482;2024-01-15T06:58:12;14.40;25.20
16532;DHT22;66872;63.142;14.482;2024-01-15T07:00:38;14.40;25.20
16532;DHT22;66872;63.142;14.482;2024-01-15T07:03:03;14.40;25.20
16532;DHT22;66872;63.142;14.482;2024-01-15T07:05:29;14.40;25.20
16532;DHT22;66872;63.142;14.482;2024-01-15T07:07:56;14.40;25.20
16532;DHT22;66872;63.142;14.482;2024-01-15T07:10:22;14.40;25.20
16532;DHT22;66872;63.142;14.482;2024-01-15T07:12:47;14.40;25.20
16532;DHT22;66872;63.142;14.482;2024-01-15T07:15:13;14.40;25.60
16532;DHT22;66872;63.142;14.482;2024-01-15T07:17:39;14.40;25.20
16532;DHT22;66872;63.142;14.482;2024-01-15T07:20:06;14.40;25.20
16532;DHT22;66872;63.142;14.482;2024-01-15T07:22:33;14.40;25.20
16532;DHT22;66872;63.142;14.482;2024-01-15T07:24:59;14.40;25.10
16532;DHT22;66872;63.142;14.482;2024-01-15T07:27:25;14.40;25.10
16532;DHT22;66872;63.142;14.482;2024-01-15T07:29:50;14.40;25.10
16532;DHT22;66872;63.142;14.482;2024-01-15T07:32:16;14.40;25.10
16532;DHT22;66872;63.142;14.482;2024-01-15T07:34:41;14.40;25.10
16532;DHT22;66872;63.142;14.482;2024-01-15T07:37:07;14.40;25.10
16532;DHT22;66872;63.142;14.482;2024-01-15T07:39:33;14.40;25.50
16532;DHT22;66872;63.142;14.482;2024-01-15T07:42:00;14.40;25.10
16532;DHT22;66872;63.142;14.482;2024-01-15T07:44:25;14.40;25.10
16532;DHT22;66872;63.142;14.482;2024-01-15T07:46:51;14.40;25.10
16532;DHT22;66872;63.142;14.482;2024-01-15T07:49:17;14.40;25.00
16532;DHT22;66872;63.142;14.482;2024-01-15T07:51:43;14.40;25.10
16532;DHT22;66872;63.142;14.482;2024-01-15T07:54:11;14.40;25.00
16532;DHT22;66872;63.142;14.482;2024-01-15T07:56:56;14.40;25.00
16532;DHT22;66872;63.142;14.482;2024-01-15T07:59:23;14.40;25.10
16532;DHT22;66872;63.142;14.482;2024-01-15T08:01:48;14.40;25.10
16532;DHT22;66872;63.142;14.482;2024-01-15T08:04:14;14.40;25.10
16532;DHT22;66872;63.142;14.482;2024-01-15T08:06:40;14.40;25.10
16532;DHT22;66872;63.142;14.482;2024-01-15T08:09:06;14.40;25.10
16532;DHT22;66872;63.142;14.482;2024-01-15T08:11:31;14.40;25.10
16532;DHT22;66872;63.142;14.482;2024-01-15T08:13:57;14.40;25.10
16532;DHT22;66872;63.142;14.482;2024-01-15T08:16:23;14.40;25.10
16532;DHT22;66872;63.142;14.482;2024-01-15T08:18:50;14.40;25.10
16532;DHT22;66872;63.142;14.482;2024-01-15T08:21:16;14.40;25.10
16532;DHT22;66872;63.142;14.482;2024-01-15T08:23:42;14.40;25.10
16532;DHT22;66872;63.142;14.482;2024-01-15T08:26:07;14.40;25.10
16532;DHT22;66872;63.142;14.482;2024-01-15T08:28:34;14.40;25.10
16532;DHT22;66872;63.142;14.482;2024-01-15T08:31:00;14.40;25.10
16532;DHT22;66872;63.142;14.482;2024-01-15T08:33:25;14.40;25.10
16532;DHT22;66872;63.142;14.482;2024-01-15T08:35:51;14.40;25.10
16532;DHT22;66872;63.142;14.482;2024-01-15T08:38:16;14.40;25.10
16532;DHT22;66872;63.142;14.482;2024-01-15T08:40:42;14.40;25.10
16532;DHT22;66872;63.142;14.482;2024-01-15T08:43:08;14.40;25.10
16532;DHT22;66872;63.142;14.482;2024-01-15T08:45:33;14.30;25.00
16532;DHT22;66872;63.142;14.482;2024-01-15T08:47:59;14.30;25.00
16532;DHT22;66872;63.142;14.482;2024-01-15T08:50:25;14.30;25.00
16532;DHT22;66872;63.142;14.482;2024-01-15T08:52:50;14.30;25.00
16532;DHT22;66872;63.142;14.482;2024-01-15T08:55:16;14.30;25.00
16532;DHT22;66872;63.142;14.482;2024-01-15T08:57:42;14.30;25.00
16532;DHT22;66872;63.142;14.482;2024-01-15T09:00:09;14.30;25.00
16532;DHT22;66872;63.142;14.482;2024-01-15T09:02:34;14.30;25.50
16532;DHT22;66872;63.142;14.482;2024-01-15T09:05:01;14.30;25.00
16532;DHT22;66872;63.142;14.482;2024-01-15T09:07:27;14.30;25.00
16532;DHT22;66872;63.142;14.482;2024-01-15T09:09:53;14.30;25.00
16532;DHT22;66872;63.142;14.482;2024-01-15T09:12:19;14.30;25.00
16532;DHT22;66872;63.142;14.482;2024-01-15T09:14:46;14.30;25.00
16532;DHT22;66872;63.142;14.482;2024-01-15T09:17:12;14.30;25.00
16532;DHT22;66872;63.142;14.482;2024-01-15T09:19:38;14.30;25.00
16532;DHT22;66872;63.142;14.482;2024-01-15T09:22:05;14.30;24.90
16532;DHT22;66872;63.142;14.482;2024-01-15T09:24:31;14.30;24.90
16532;DHT22;66872;63.142;14.482;2024-01-15T09:26:56;14.30;25.00
16532;DHT22;66872;63.142;14.482;2024-01-15T09:29:22;14.30;25.00
16532;DHT22;66872;63.142;14.482;2024-01-15T09:31:49;14.30;24.90
16532;DHT22;66872;63.142;14.482;2024-01-15T09:34:16;14.30;25.00
16532;DHT22;66872;63.142;14.482;2024-01-15T09:36:41;14.30;24.90
16532;DHT22;66872;63.142;14.482;2024-01-15T09:39:08;14.30;24.90
16532;DHT22;66872;63.142;14.482;2024-01-15T09:41:37;14.30;24.90
16532;DHT22;66872;63.142;14.482;2024-01-15T09:44:06;14.30;24.90
16532;DHT22;66872;63.142;14.482;2024-01-15T09:46:34;14.30;24.90
16532;DHT22;66872;63.142;14.482;2024-01-15T09:49:00;14.30;24.90
16532;DHT22;66872;63.142;14.482;2024-01-15T09:51:31;14.30;24.80
16532;DHT22;66872;63.142;14.482;2024-01-15T09:53:57;14.30;24.80
16532;DHT22;66872;63.142;14.482;2024-01-15T09:56:23;14.30;24.90
16532;DHT22;66872;63.142;14.482;2024-01-15T09:58:50;14.30;24.80
16532;DHT22;66872;63.142;14.482;2024-01-15T10:01:20;14.30;24.80
16532;DHT22;66872;63.142;14.482;2024-01-15T10:03:46;14.30;24.80
16532;DHT22;66872;63.142;14.482;2024-01-15T10:06:15;14.30;24.80
16532;DHT22;66872;63.142;14.482;2024-01-15T10:08:46;14.30;24.80
16532;DHT22;66872;63.142;14.482;2024-01-15T10:11:13;14.30;24.80
16532;DHT22;66872;63.142;14.482;2024-01-15T10:13:39;14.30;24.80
16532;DHT22;66872;63.142;14.482;2024-01-15T10:16:05;14.30;24.70
16532;DHT22;66872;63.142;14.482;2024-01-15T10:18:31;14.30;24.70
16532;DHT22;66872;63.142;14.482;2024-01-15T10:20:57;14.30;24.70
16532;DHT22;66872;63.142;14.482;2024-01-15T10:23:24;14.30;24.70
16532;DHT22;66872;63.142;14.482;2024-01-15T10:25:49;14.30;24.70
16532;DHT22;66872;63.142;14.482;2024-01-15T10:28:19;14.30;24.70
16532;DHT22;66872;63.142;14.482;2024-01-15T10:30:44;14.30;24.70
16532;DHT22;66872;63.142;14.482;2024-01-15T10:33:10;14.30;24.70
16532;DHT22;66872;63.142;14.482;2024-01-15T10:35:38;14.30;24.70
16532;DHT22;66872;63.142;14.482;2024-01-15T10:38:05;14.30;24.70
16532;DHT22;66872;63.142;14.482;2024-01-15T10:40:31;14.30;24.70
16532;DHT22;66872;63.142;14.482;2024-01-15T10:42:57;14.30;24.70
16532;DHT22;66872;63.142;14.482;2024-01-15T10:45:23;14.30;24.70
16532;DHT22;66872;63.142;14.482;2024-01-15T10:47:49;14.30;24.70
16532;DHT22;66872;63.142;14.482;2024-01-15T10:50:15;14.30;24.70
16532;DHT22;66872;63.142;14.482;2024-01-15T10:52:42;14.30;24.70
16532;DHT22;66872;63.142;14.482;2024-01-15T10:55:11;14.30;24.70
16532;DHT22;66872;63.142;14.482;2024-01-15T10:57:37;14.30;24.70
16532;DHT22;66872;63.142;14.482;2024-01-15T11:00:04;14.20;24.70
16532;DHT22;66872;63.142;14.482;2024-01-15T11:02:36;14.30;24.70
16532;DHT22;66872;63.142;14.482;2024-01-15T11:05:02;14.30;24.80
16532;DHT22;66872;63.142;14.482;2024-01-15T11:07:30;14.30;24.80
16532;DHT22;66872;63.142;14.482;2024-01-15T11:09:56;14.30;24.80
16532;DHT22;66872;63.142;14.482;2024-01-15T11:12:24;14.30;24.80
16532;DHT22;66872;63.142;14.482;2024-01-15T11:14:50;14.30;24.80
16532;DHT22;66872;63.142;14.482;2024-01-15T11:17:17;14.30;24.70
16532;DHT22;66872;63.142;14.482;2024-01-15T11:19:46;14.30;24.70
16532;DHT22;66872;63.142;14.482;2024-01-15T11:25:03;14.30;24.80
16532;DHT22;66872;63.142;14.482;2024-01-15T11:27:52;14.30;24.80
16532;DHT22;66872;63.142;14.482;2024-01-15T11:30:18;14.30;24.80
16532;DHT22;66872;63.142;14.482;2024-01-15T11:32:47;14.30;24.80
16532;DHT22;66872;63.142;14.482;2024-01-15T11:35:13;14.20;24.70
16532;DHT22;66872;63.142;14.482;2024-01-15T11:40:23;14.20;24.70
16532;DHT22;66872;63.142;14.482;2024-01-15T11:43:05;14.20;24.70
16532;DHT22;66872;63.142;14.482;2024-01-15T11:45:31;14.20;24.70
16532;DHT22;66872;63.142;14.482;2024-01-15T11:50:30;14.20;24.70
16532;DHT22;66872;63.142;14.482;2024-01-15T11:53:00;14.20;24.70
16532;DHT22;66872;63.142;14.482;2024-01-15T11:55:33;14.20;24.70
16532;DHT22;66872;63.142;14.482;2024-01-15T11:58:01;14.20;24.70
16532;DHT22;66872;63.142;14.482;2024-01-15T12:00:28;14.30;24.70
16532;DHT22;66872;63.142;14.482;2024-01-15T12:02:54;14.30;24.70
16532;DHT22;66872;63.142;14.482;2024-01-15T12:05:22;14.20;24.60
16532;DHT22;66872;63.142;14.482;2024-01-15T12:07:49;14.20;24.60
16532;DHT22;66872;63.142;14.482;2024-01-15T12:10:17;14.20;24.70
16532;DHT22;66872;63.142;14.482;2024-01-15T12:13:00;14.30;24.70
16532;DHT22;66872;63.142;14.482;2024-01-15T12:15:30;14.20;24.70
16532;DHT22;66872;63.142;14.482;2024-01-15T12:17:56;14.20;24.70
16532;DHT22;66872;63.142;14.482;2024-01-15T12:20:27;14.20;24.70
16532;DHT22;66872;63.142;14.482;2024-01-15T12:22:53;14.20;24.70
16532;DHT22;66872;63.142;14.482;2024-01-15T12:25:24;14.20;24.60
16532;DHT22;66872;63.142;14.482;2024-01-15T12:27:51;14.20;25.10
16532;DHT22;66872;63.142;14.482;2024-01-15T12:30:17;14.20;24.60
16532;DHT22;66872;63.142;14.482;2024-01-15T12:32:44;14.20;24.60
16532;DHT22;66872;63.142;14.482;2024-01-15T12:35:10;14.30;24.70
16532;DHT22;66872;63.142;14.482;2024-01-15T12:37:37;14.30;24.70
16532;DHT22;66872;63.142;14.482;2024-01-15T12:40:07;14.30;24.60
16532;DHT22;66872;63.142;14.482;2024-01-15T12:42:33;14.20;24.60
16532;DHT22;66872;63.142;14.482;2024-01-15T12:45:03;14.20;24.60
16532;DHT22;66872;63.142;14.482;2024-01-15T12:47:30;14.20;24.60
16532;DHT22;66872;63.142;14.482;2024-01-15T12:49:57;14.30;24.60
16532;DHT22;66872;63.142;14.482;2024-01-15T12:52:23;14.30;24.60
16532;DHT22;66872;63.142;14.482;2024-01-15T12:54:49;14.30;24.60
16532;DHT22;66872;63.142;14.482;2024-01-15T12:57:16;14.20;24.50
16532;DHT22;66872;63.142;14.482;2024-01-15T12:59:43;14.20;24.50
16532;DHT22;66872;63.142;14.482;2024-01-15T13:02:10;14.20;24.50
16532;DHT22;66872;63.142;14.482;2024-01-15T13:04:35;14.20;24.50
16532;DHT22;66872;63.142;14.482;2024-01-15T13:07:01;14.20;24.50
16532;DHT22;66872;63.142;14.482;2024-01-15T13:09:27;14.20;24.50
16532;DHT22;66872;63.142;14.482;2024-01-15T13:11:53;14.20;24.50
16532;DHT22;66872;63.142;14.482;2024-01-15T13:14:19;14.20;24.50
16532;DHT22;66872;63.142;14.482;2024-01-15T13:16:45;14.20;24.50
16532;DHT22;66872;63.142;14.482;2024-01-15T13:19:10;14.20;24.50
16532;DHT22;66872;63.142;14.482;2024-01-15T13:21:40;14.20;24.50
16532;DHT22;66872;63.142;14.482;2024-01-15T13:24:06;14.20;24.40
16532;DHT22;66872;63.142;14.482;2024-01-15T13:26:35;14.20;24.40
16532;DHT22;66872;63.142;14.482;2024-01-15T13:29:04;14.20;24.50
16532;DHT22;66872;63.142;14.482;2024-01-15T13:31:30;14.20;24.40
16532;DHT22;66872;63.142;14.482;2024-01-15T13:33:56;14.20;24.50
16532;DHT22;66872;63.142;14.482;2024-01-15T13:36:26;14.20;24.50
16532;DHT22;66872;63.142;14.482;2024-01-15T13:38:52;14.20;24.50
16532;DHT22;66872;63.142;14.482;2024-01-15T13:41:21;14.20;24.40
16532;DHT22;66872;63.142;14.482;2024-01-15T13:43:50;14.20;24.50
16532;DHT22;66872;63.142;14.482;2024-01-15T13:46:22;14.20;24.40
16532;DHT22;66872;63.142;14.482;2024-01-15T13:48:48;14.20;24.50
16532;DHT22;66872;63.142;14.482;2024-01-15T13:51:14;14.20;24.50
16532;DHT22;66872;63.142;14.482;2024-01-15T13:53:40;14.20;24.50
16532;DHT22;66872;63.142;14.482;2024-01-15T13:56:06;14.20;24.50
16532;DHT22;66872;63.142;14.482;2024-01-15T13:58:33;14.20;24.50
16532;DHT22;66872;63.142;14.482;2024-01-15T14:00:59;14.20;24.50
16532;DHT22;66872;63.142;14.482;2024-01-15T14:03:25;14.20;24.50
16532;DHT22;66872;63.142;14.482;2024-01-15T14:05:51;14.20;24.50
16532;DHT22;66872;63.142;14.482;2024-01-15T14:08:17;14.20;24.50
16532;DHT22;66872;63.142;14.482;2024-01-15T14:10:43;14.20;24.90
16532;DHT22;66872;63.142;14.482;2024-01-15T14:13:09;14.20;24.50
16532;DHT22;66872;63.142;14.482;2024-01-15T14:15:35;14.20;24.50
16532;DHT22;66872;63.142;14.482;2024-01-15T14:18:01;14.20;24.50
16532;DHT22;66872;63.142;14.482;2024-01-15T14:20:27;14.20;24.50
16532;DHT22;66872;63.142;14.482;2024-01-15T14:22:53;14.20;24.50
16532;DHT22;66872;63.142;14.482;2024-01-15T14:25:20;14.20;24.50
16532;DHT22;66872;63.142;14.482;2024-01-15T14:27:46;14.20;24.40
16532;DHT22;66872;63.142;14.482;2024-01-15T14:30:12;14.20;24.50
16532;DHT22;66872;63.142;14.482;2024-01-15T14:32:38;14.20;24.50
16532;DHT22;66872;63.142;14.482;2024-01-15T14:35:05;14.10;24.30
16532;DHT22;66872;63.142;14.482;2024-01-15T14:37:31;14.20;24.40
16532;DHT22;66872;63.142;14.482;2024-01-15T14:39:57;14.20;24.40
16532;DHT22;66872;63.142;14.482;2024-01-15T14:42:23;14.20;24.40
16532;DHT22;66872;63.142;14.482;2024-01-15T14:44:49;14.20;24.40
16532;DHT22;66872;63.142;14.482;2024-01-15T14:47:15;14.20;24.90
16532;DHT22;66872;63.142;14.482;2024-01-15T14:49:41;14.20;24.40
16532;DHT22;66872;63.142;14.482;2024-01-15T14:52:06;14.20;24.40
16532;DHT22;66872;63.142;14.482;2024-01-15T14:54:32;14.20;24.40
16532;DHT22;66872;63.142;14.482;2024-01-15T14:56:58;14.10;24.30
16532;DHT22;66872;63.142;14.482;2024-01-15T14:59:23;14.10;24.30
16532;DHT22;66872;63.142;14.482;2024-01-15T15:01:49;14.20;24.40
16532;DHT22;66872;63.142;14.482;2024-01-15T15:04:15;14.20;24.40
16532;DHT22;66872;63.142;14.482;2024-01-15T15:06:40;14.20;24.40
16532;DHT22;66872;63.142;14.482;2024-01-15T15:09:06;14.20;24.40
16532;DHT22;66872;63.142;14.482;2024-01-15T15:11:35;14.10;24.30
16532;DHT22;66872;63.142;14.482;2024-01-15T15:14:01;14.20;24.30
16532;DHT22;66872;63.142;14.482;2024-01-15T15:16:27;14.20;24.30
16532;DHT22;66872;63.142;14.482;2024-01-15T15:18:53;14.20;24.30